createdAt,value
2022-09-25T00:00:55.186Z,90.19
2022-09-25T00:01:55.278Z,90.21
2022-09-25T00:02:55.263Z,90.23
2022-09-25T00:03:55.143Z,90.24
2022-09-25T00:04:55.141Z,90.29
2022-09-25T00:05:55.115Z,90.39
2022-09-25T00:06:55.122Z,90.41
2022-09-25T00:07:55.120Z,90.41
2022-09-25T00:08:55.096Z,90.44
2022-09-25T00:09:55.077Z,90.40
2022-09-25T00:10:55.075Z,90.40
2022-09-25T00:11:55.046Z,90.41
2022-09-25T00:12:55.057Z,90.41
2022-09-25T00:13:55.034Z,90.41
2022-09-25T00:14:55.026Z,90.41
2022-09-25T00:15:55.016Z,90.44
2022-09-25T00:16:55.041Z,90.43
2022-09-25T00:17:54.963Z,90.45
2022-09-25T00:18:54.995Z,90.49
2022-09-25T00:19:54.933Z,90.55
2022-09-25T00:20:54.942Z,90.54
2022-09-25T00:21:54.940Z,90.58
2022-09-25T00:22:54.911Z,90.57
2022-09-25T00:23:54.915Z,90.60
2022-09-25T00:24:54.883Z,90.60
2022-09-25T00:25:54.889Z,90.65
2022-09-25T00:26:54.876Z,90.66
2022-09-25T00:27:54.865Z,90.65
2022-09-25T00:28:54.867Z,90.65
2022-09-25T00:29:54.824Z,90.62
2022-09-25T00:30:54.885Z,90.62
2022-09-25T00:31:54.824Z,90.63
2022-09-25T00:32:54.785Z,90.69
2022-09-25T00:33:54.798Z,90.69
2022-09-25T00:34:54.791Z,90.77
2022-09-25T00:35:54.769Z,90.77
2022-09-25T00:36:54.744Z,90.87
2022-09-25T00:37:54.741Z,90.89
2022-09-25T00:38:54.729Z,90.94
2022-09-25T00:39:54.726Z,90.96
2022-09-25T00:40:54.732Z,90.95
2022-09-25T00:41:54.707Z,91.05
2022-09-25T00:42:54.688Z,91.06
2022-09-25T00:43:54.677Z,91.06
2022-09-25T00:44:54.705Z,91.04
2022-09-25T00:45:54.795Z,91.06
2022-09-25T00:46:54.633Z,91.11
2022-09-25T00:47:54.626Z,91.15
2022-09-25T00:48:54.614Z,91.17
2022-09-25T00:49:54.598Z,91.15
2022-09-25T00:50:54.603Z,91.17
2022-09-25T00:51:55.168Z,91.22
2022-09-25T00:52:54.573Z,91.23
2022-09-25T00:53:54.567Z,91.28
2022-09-25T00:54:54.569Z,91.31
2022-09-25T00:55:54.569Z,91.42
2022-09-25T00:56:54.522Z,91.43
2022-09-25T00:57:54.522Z,91.40
2022-09-25T00:58:54.537Z,91.43
2022-09-25T00:59:54.508Z,91.44
2022-09-25T01:00:54.536Z,91.50
2022-09-25T01:01:54.478Z,91.59
2022-09-25T01:02:54.499Z,91.62
2022-09-25T01:03:54.447Z,91.64
2022-09-25T01:04:54.439Z,91.62
2022-09-25T01:05:54.415Z,91.67
2022-09-25T01:06:54.405Z,91.67
2022-09-25T01:07:54.389Z,91.69
2022-09-25T01:08:54.379Z,91.76
2022-09-25T01:09:54.371Z,91.79
2022-09-25T01:10:54.370Z,91.77
2022-09-25T01:11:54.369Z,91.77
2022-09-25T01:12:54.396Z,91.82
2022-09-25T01:13:54.320Z,91.87
2022-09-25T01:14:54.308Z,91.85
2022-09-25T01:15:54.303Z,91.86
2022-09-25T01:16:54.444Z,91.89
2022-09-25T01:17:54.294Z,91.94
2022-09-25T01:18:54.269Z,91.95
2022-09-25T01:19:54.265Z,91.94
2022-09-25T01:20:54.253Z,91.97
2022-09-25T01:21:54.247Z,91.98
2022-09-25T01:22:54.226Z,91.96
2022-09-25T01:23:54.237Z,92.00
2022-09-25T01:24:54.200Z,92.02
2022-09-25T01:25:54.191Z,92.03
2022-09-25T01:26:54.181Z,92.05
2022-09-25T01:27:54.171Z,92.06
2022-09-25T01:28:54.140Z,92.08
2022-09-25T01:29:54.137Z,92.07
2022-09-25T01:30:54.160Z,92.05
2022-09-25T01:31:54.121Z,92.07
2022-09-25T01:32:54.129Z,92.10
2022-09-25T01:33:54.093Z,92.13
2022-09-25T01:34:54.085Z,92.15
2022-09-25T01:35:54.071Z,92.15
2022-09-25T01:36:54.060Z,92.15
2022-09-25T01:37:54.072Z,92.16
2022-09-25T01:38:54.038Z,92.17
2022-09-25T01:39:54.031Z,92.14
2022-09-25T01:40:54.128Z,92.18
2022-09-25T01:41:54.003Z,92.17
2022-09-25T01:42:54.004Z,92.19
2022-09-25T01:43:53.980Z,92.23
2022-09-25T01:44:53.973Z,92.24
2022-09-25T01:45:54.016Z,92.22
2022-09-25T01:46:53.929Z,92.21
2022-09-25T01:47:53.930Z,92.23
2022-09-25T01:48:53.936Z,92.25
2022-09-25T01:49:53.915Z,92.27
2022-09-25T01:50:53.903Z,92.26
2022-09-25T01:51:55.868Z,92.24
2022-09-25T01:52:53.880Z,92.26
2022-09-25T01:53:53.868Z,92.25
2022-09-25T01:54:53.864Z,92.25
2022-09-25T01:55:53.844Z,92.22
2022-09-25T01:56:53.825Z,92.18
2022-09-25T01:57:53.826Z,92.18
2022-09-25T01:58:53.801Z,92.13
2022-09-25T01:59:53.810Z,92.11
2022-09-25T02:00:53.793Z,92.05
2022-09-25T02:01:53.828Z,92.01
2022-09-25T02:02:53.807Z,91.92
2022-09-25T02:03:53.752Z,91.89
2022-09-25T02:04:53.752Z,91.89
2022-09-25T02:05:53.725Z,91.89
2022-09-25T02:06:53.707Z,91.90
2022-09-25T02:07:53.695Z,91.90
2022-09-25T02:08:53.690Z,91.89
2022-09-25T02:09:53.675Z,91.91
2022-09-25T02:10:53.687Z,91.91
2022-09-25T02:11:53.654Z,91.91
2022-09-25T02:12:53.638Z,91.90
2022-09-25T02:13:53.651Z,91.87
2022-09-25T02:14:53.606Z,91.85
2022-09-25T02:15:53.626Z,91.76
2022-09-25T02:16:53.627Z,91.78
2022-09-25T02:17:53.589Z,91.79
2022-09-25T02:18:53.579Z,91.77
2022-09-25T02:19:53.563Z,91.73
2022-09-25T02:20:53.571Z,91.72
2022-09-25T02:21:53.538Z,91.68
2022-09-25T02:22:53.529Z,91.71
2022-09-25T02:23:53.529Z,91.69
2022-09-25T02:24:58.491Z,91.65
2022-09-25T02:25:54.517Z,91.66
2022-09-25T02:26:53.495Z,91.66
2022-09-25T02:27:53.481Z,91.66
2022-09-25T02:28:53.465Z,91.68
2022-09-25T02:29:53.459Z,91.69
2022-09-25T02:30:53.510Z,91.69
2022-09-25T02:31:53.438Z,91.72
2022-09-25T02:32:53.412Z,91.70
2022-09-25T02:33:53.407Z,91.70
2022-09-25T02:34:53.387Z,91.70
2022-09-25T02:35:53.394Z,91.69
2022-09-25T02:36:53.397Z,91.69
2022-09-25T02:37:53.363Z,91.71
2022-09-25T02:38:53.370Z,91.69
2022-09-25T02:39:53.344Z,91.71
2022-09-25T02:40:53.407Z,91.72
2022-09-25T02:41:53.334Z,91.77
2022-09-25T02:42:53.310Z,91.75
2022-09-25T02:43:53.287Z,91.72
2022-09-25T02:44:53.282Z,91.69
2022-09-25T02:45:53.333Z,91.69
2022-09-25T02:46:53.278Z,91.69
2022-09-25T02:47:53.242Z,91.72
2022-09-25T02:48:53.243Z,91.74
2022-09-25T02:49:53.221Z,91.72
2022-09-25T02:50:53.210Z,91.72
2022-09-25T02:51:53.199Z,91.74
2022-09-25T02:52:53.208Z,91.77
2022-09-25T02:53:53.179Z,91.80
2022-09-25T02:54:53.152Z,91.77
2022-09-25T02:55:53.150Z,91.77
2022-09-25T02:56:53.138Z,91.80
2022-09-25T02:57:53.146Z,91.81
2022-09-25T02:58:53.137Z,91.76
2022-09-25T02:59:53.112Z,91.78
2022-09-25T03:00:53.164Z,91.78
2022-09-25T03:01:53.257Z,91.81
2022-09-25T03:02:53.145Z,91.81
2022-09-25T03:03:53.092Z,91.79
2022-09-25T03:04:53.081Z,91.80
2022-09-25T03:05:53.021Z,91.80
2022-09-25T03:06:53.024Z,91.82
2022-09-25T03:07:53.017Z,91.84
2022-09-25T03:08:53.022Z,91.86
2022-09-25T03:09:52.989Z,91.88
2022-09-25T03:10:52.973Z,91.90
2022-09-25T03:11:52.981Z,91.92
2022-09-25T03:12:52.963Z,91.93
2022-09-25T03:13:52.962Z,91.96
2022-09-25T03:14:52.945Z,91.95
2022-09-25T03:15:52.922Z,91.99
2022-09-25T03:16:52.948Z,92.02
2022-09-25T03:17:52.904Z,92.04
2022-09-25T03:18:52.899Z,92.04
2022-09-25T03:19:52.872Z,92.05
2022-09-25T03:20:52.860Z,92.09
2022-09-25T03:21:52.856Z,92.06
2022-09-25T03:22:52.850Z,92.07
2022-09-25T03:23:52.836Z,92.02
2022-09-25T03:24:52.817Z,92.01
2022-09-25T03:25:52.826Z,92.01
2022-09-25T03:26:52.787Z,91.99
2022-09-25T03:27:52.784Z,92.00
2022-09-25T03:28:52.807Z,92.01
2022-09-25T03:29:52.765Z,91.99
2022-09-25T03:30:52.878Z,91.99
2022-09-25T03:31:52.755Z,91.99
2022-09-25T03:32:52.725Z,91.95
2022-09-25T03:33:52.774Z,91.93
2022-09-25T03:34:52.704Z,91.96
2022-09-25T03:35:52.691Z,92.00
2022-09-25T03:36:52.681Z,92.00
2022-09-25T03:37:52.685Z,91.97
2022-09-25T03:38:52.669Z,91.99
2022-09-25T03:39:52.645Z,91.97
2022-09-25T03:40:52.690Z,91.97
2022-09-25T03:41:52.642Z,91.97
2022-09-25T03:42:52.637Z,91.95
2022-09-25T03:43:52.627Z,91.93
2022-09-25T03:44:52.585Z,91.93
2022-09-25T03:45:52.664Z,91.90
2022-09-25T03:46:52.557Z,91.88
2022-09-25T03:47:52.558Z,91.91
2022-09-25T03:48:52.579Z,91.88
2022-09-25T03:49:52.538Z,91.89
2022-09-25T03:50:52.508Z,91.85
2022-09-25T03:51:52.505Z,91.87
2022-09-25T03:52:52.497Z,91.84
2022-09-25T03:53:52.512Z,91.84
2022-09-25T03:54:52.460Z,91.86
2022-09-25T03:55:52.461Z,91.85
2022-09-25T03:56:52.442Z,91.84
2022-09-25T03:57:52.436Z,91.78
2022-09-25T03:58:52.452Z,91.76
2022-09-25T03:59:52.422Z,91.61
2022-09-25T04:00:52.400Z,91.52
2022-09-25T04:01:52.456Z,91.48
2022-09-25T04:02:52.438Z,91.41
2022-09-25T04:03:52.372Z,91.38
2022-09-25T04:04:52.391Z,91.41
2022-09-25T04:05:52.342Z,91.38
2022-09-25T04:06:52.329Z,91.36
2022-09-25T04:07:52.331Z,91.35
2022-09-25T04:08:52.318Z,91.39
2022-09-25T04:09:52.320Z,91.44
2022-09-25T04:10:52.290Z,91.44
2022-09-25T04:11:52.276Z,91.39
2022-09-25T04:12:52.283Z,91.38
2022-09-25T04:13:52.250Z,91.40
2022-09-25T04:14:52.278Z,91.40
2022-09-25T04:15:52.275Z,91.44
2022-09-25T04:16:52.293Z,91.40
2022-09-25T04:17:52.199Z,91.39
2022-09-25T04:18:52.187Z,91.40
2022-09-25T04:19:52.192Z,91.45
2022-09-25T04:20:52.174Z,91.47
2022-09-25T04:21:52.170Z,91.46
2022-09-25T04:22:52.171Z,91.48
2022-09-25T04:23:52.157Z,91.45
2022-09-25T04:24:52.119Z,91.50
2022-09-25T04:25:52.112Z,91.51
2022-09-25T04:26:52.103Z,91.52
2022-09-25T04:27:52.115Z,91.39
2022-09-25T04:28:52.091Z,91.34
2022-09-25T04:29:52.061Z,91.37
2022-09-25T04:30:52.051Z,91.38
2022-09-25T04:31:52.086Z,91.40
2022-09-25T04:32:52.038Z,91.37
2022-09-25T04:33:52.038Z,91.30
2022-09-25T04:34:52.018Z,91.30
2022-09-25T04:35:51.991Z,91.29
2022-09-25T04:36:51.982Z,91.26
2022-09-25T04:37:51.990Z,91.20
2022-09-25T04:38:51.968Z,91.21
2022-09-25T04:39:51.976Z,91.21
2022-09-25T04:40:52.040Z,91.28
2022-09-25T04:41:51.933Z,91.25
2022-09-25T04:42:51.917Z,91.28
2022-09-25T04:43:51.917Z,91.20
2022-09-25T04:44:51.916Z,91.19
2022-09-25T04:45:51.970Z,91.13
2022-09-25T04:46:51.941Z,91.09
2022-09-25T04:47:51.867Z,91.07
2022-09-25T04:48:51.845Z,91.11
2022-09-25T04:49:51.859Z,91.09
2022-09-25T04:50:51.825Z,91.10
2022-09-25T04:51:51.822Z,91.13
2022-09-25T04:52:51.795Z,91.15
2022-09-25T04:53:51.791Z,91.19
2022-09-25T04:54:51.798Z,91.20
2022-09-25T04:55:51.779Z,91.22
2022-09-25T04:56:51.756Z,91.23
2022-09-25T04:57:58.784Z,91.26
2022-09-25T04:58:52.727Z,91.24
2022-09-25T04:59:51.747Z,91.28
2022-09-25T05:00:51.766Z,91.29
2022-09-25T05:01:51.814Z,91.30
2022-09-25T05:02:51.761Z,91.32
2022-09-25T05:03:51.718Z,91.31
2022-09-25T05:04:51.671Z,91.38
2022-09-25T05:05:51.660Z,91.37
2022-09-25T05:06:51.665Z,91.39
2022-09-25T05:07:51.619Z,91.39
2022-09-25T05:08:51.626Z,91.39
2022-09-25T05:09:51.606Z,91.43
2022-09-25T05:10:51.590Z,91.45
2022-09-25T05:11:51.595Z,91.47
2022-09-25T05:12:51.570Z,91.49
2022-09-25T05:13:51.642Z,91.44
2022-09-25T05:14:51.543Z,91.45
2022-09-25T05:15:51.576Z,91.43
2022-09-25T05:16:51.547Z,91.44
2022-09-25T05:17:51.524Z,91.44
2022-09-25T05:18:51.510Z,91.42
2022-09-25T05:19:51.497Z,91.41
2022-09-25T05:20:51.477Z,91.41
2022-09-25T05:21:51.463Z,91.38
2022-09-25T05:22:51.470Z,91.39
2022-09-25T05:23:51.459Z,91.44
2022-09-25T05:24:54.148Z,91.42
2022-09-25T05:25:52.431Z,91.39
2022-09-25T05:26:51.541Z,91.43
2022-09-25T05:27:51.408Z,91.48
2022-09-25T05:28:51.397Z,91.47
2022-09-25T05:29:51.371Z,91.49
2022-09-25T05:30:51.372Z,91.57
2022-09-25T05:31:51.410Z,91.57
2022-09-25T05:32:51.351Z,91.58
2022-09-25T05:33:51.340Z,91.57
2022-09-25T05:34:51.330Z,91.60
2022-09-25T05:35:51.314Z,91.60
2022-09-25T05:36:51.361Z,91.61
2022-09-25T05:37:51.347Z,91.65
2022-09-25T05:38:51.290Z,91.64
2022-09-25T05:39:51.261Z,91.63
2022-09-25T05:40:51.345Z,91.64
2022-09-25T05:41:51.238Z,91.64
2022-09-25T05:42:51.222Z,91.65
2022-09-25T05:43:51.232Z,91.67
2022-09-25T05:44:51.216Z,91.72
2022-09-25T05:45:51.231Z,91.75
2022-09-25T05:46:51.185Z,91.73
2022-09-25T05:47:51.180Z,91.73
2022-09-25T05:48:51.186Z,91.73
2022-09-25T05:49:51.142Z,91.71
2022-09-25T05:50:51.143Z,91.73
2022-09-25T05:51:51.131Z,91.63
2022-09-25T05:52:51.112Z,91.63
2022-09-25T05:53:51.114Z,91.72
2022-09-25T05:54:51.104Z,91.71
2022-09-25T05:55:51.084Z,91.68
2022-09-25T05:56:51.069Z,91.67
2022-09-25T05:57:51.054Z,91.71
2022-09-25T05:58:51.046Z,91.73
2022-09-25T05:59:51.052Z,91.74
2022-09-25T06:00:51.022Z,91.79
2022-09-25T06:01:51.110Z,91.80
2022-09-25T06:02:51.054Z,91.81
2022-09-25T06:03:51.013Z,91.81
2022-09-25T06:04:50.998Z,91.90
2022-09-25T06:05:50.971Z,91.87
2022-09-25T06:06:50.963Z,91.87
2022-09-25T06:07:50.954Z,91.87
2022-09-25T06:08:50.946Z,91.87
2022-09-25T06:09:50.928Z,91.91
2022-09-25T06:10:50.974Z,91.90
2022-09-25T06:11:50.901Z,91.89
2022-09-25T06:12:50.883Z,91.88
2022-09-25T06:13:54.525Z,91.88
2022-09-25T06:14:50.879Z,91.90
2022-09-25T06:15:50.968Z,91.89
2022-09-25T06:16:50.873Z,91.85
2022-09-25T06:17:50.845Z,91.82
2022-09-25T06:18:50.816Z,91.82
2022-09-25T06:19:50.816Z,91.77
2022-09-25T06:20:50.795Z,91.72
2022-09-25T06:21:50.832Z,91.71
2022-09-25T06:22:50.778Z,91.71
2022-09-25T06:23:50.808Z,91.71
2022-09-25T06:24:50.745Z,91.69
2022-09-25T06:25:50.750Z,91.65
2022-09-25T06:26:50.787Z,91.67
2022-09-25T06:27:50.706Z,91.66
2022-09-25T06:28:50.707Z,91.67
2022-09-25T06:29:50.696Z,91.69
2022-09-25T06:30:50.736Z,91.62
2022-09-25T06:31:50.694Z,91.55
2022-09-25T06:32:50.661Z,91.56
2022-09-25T06:33:50.639Z,91.58
2022-09-25T06:34:50.635Z,91.57
2022-09-25T06:35:50.616Z,91.55
2022-09-25T06:36:50.646Z,91.59
2022-09-25T06:37:50.604Z,91.60
2022-09-25T06:38:50.597Z,91.61
2022-09-25T06:39:50.577Z,91.62
2022-09-25T06:40:50.619Z,91.60
2022-09-25T06:41:50.571Z,91.59
2022-09-25T06:42:50.539Z,91.61
2022-09-25T06:43:50.529Z,91.60
2022-09-25T06:44:50.531Z,91.48
2022-09-25T06:45:50.553Z,91.48
2022-09-25T06:46:50.612Z,91.49
2022-09-25T06:47:50.508Z,91.47
2022-09-25T06:48:50.478Z,91.52
2022-09-25T06:49:50.467Z,91.55
2022-09-25T06:50:50.455Z,91.58
2022-09-25T06:51:50.429Z,91.55
2022-09-25T06:52:50.460Z,91.52
2022-09-25T06:53:50.437Z,91.50
2022-09-25T06:54:50.421Z,91.52
2022-09-25T06:55:50.398Z,91.51
2022-09-25T06:56:50.396Z,91.52
2022-09-25T06:57:50.375Z,91.51
2022-09-25T06:58:50.378Z,91.47
2022-09-25T06:59:50.366Z,91.41
2022-09-25T07:00:50.350Z,91.39
2022-09-25T07:01:50.469Z,91.34
2022-09-25T07:02:50.433Z,91.36
2022-09-25T07:03:50.330Z,91.29
2022-09-25T07:04:50.312Z,91.24
2022-09-25T07:05:50.283Z,91.32
2022-09-25T07:06:50.277Z,91.35
2022-09-25T07:07:50.252Z,91.38
2022-09-25T07:08:50.275Z,91.40
2022-09-25T07:09:50.239Z,91.39
2022-09-25T07:10:50.236Z,91.34
2022-09-25T07:11:50.229Z,91.34
2022-09-25T07:12:50.206Z,91.35
2022-09-25T07:13:50.202Z,91.32
2022-09-25T07:14:50.181Z,91.28
2022-09-25T07:15:50.197Z,91.25
2022-09-25T07:16:50.179Z,91.23
2022-09-25T07:17:50.153Z,91.10
2022-09-25T07:18:50.141Z,91.02
2022-09-25T07:19:50.123Z,91.00
2022-09-25T07:20:50.112Z,90.84
2022-09-25T07:21:50.101Z,90.71
2022-09-25T07:22:50.117Z,90.77
2022-09-25T07:23:50.097Z,90.78
2022-09-25T07:24:50.067Z,90.82
2022-09-25T07:25:50.043Z,90.82
2022-09-25T07:26:50.062Z,90.82
2022-09-25T07:27:50.032Z,90.80
2022-09-25T07:28:50.034Z,90.85
2022-09-25T07:29:49.995Z,90.89
2022-09-25T07:30:50.151Z,90.88
2022-09-25T07:31:49.985Z,90.85
2022-09-25T07:32:49.995Z,90.83
2022-09-25T07:33:49.988Z,90.79
2022-09-25T07:34:49.944Z,90.82
2022-09-25T07:35:49.932Z,90.84
2022-09-25T07:36:49.935Z,90.78
2022-09-25T07:37:49.908Z,90.78
2022-09-25T07:38:49.918Z,90.80
2022-09-25T07:39:49.921Z,90.65
2022-09-25T07:40:49.911Z,90.70
2022-09-25T07:41:49.876Z,90.77
2022-09-25T07:42:49.863Z,90.76
2022-09-25T07:43:52.673Z,90.74
2022-09-25T07:44:51.031Z,90.76
2022-09-25T07:45:49.817Z,90.65
2022-09-25T07:46:49.848Z,90.65
2022-09-25T07:47:49.797Z,90.73
2022-09-25T07:48:49.778Z,90.63
2022-09-25T07:49:49.806Z,90.61
2022-09-25T07:50:49.774Z,90.51
2022-09-25T07:51:49.766Z,90.46
2022-09-25T07:52:49.754Z,90.48
2022-09-25T07:53:49.747Z,90.57
2022-09-25T07:54:49.742Z,90.60
2022-09-25T07:55:49.729Z,90.59
2022-09-25T07:56:49.699Z,90.52
2022-09-25T07:57:49.670Z,90.54
2022-09-25T07:58:49.668Z,90.59
2022-09-25T07:59:49.673Z,90.47
2022-09-25T08:00:49.666Z,90.40
2022-09-25T08:01:53.693Z,90.40
2022-09-25T08:02:49.673Z,90.40
2022-09-25T08:03:49.612Z,90.43
2022-09-25T08:04:49.652Z,90.53
2022-09-25T08:05:49.648Z,90.47
2022-09-25T08:06:49.627Z,90.52
2022-09-25T08:07:49.615Z,90.51
2022-09-25T08:08:49.572Z,90.53
2022-09-25T08:09:49.556Z,90.49
2022-09-25T08:10:49.548Z,90.43
2022-09-25T08:11:49.537Z,90.42
2022-09-25T08:12:49.526Z,90.27
2022-09-25T08:13:49.513Z,90.29
2022-09-25T08:14:49.618Z,90.34
2022-09-25T08:15:49.550Z,90.45
2022-09-25T08:16:49.506Z,90.48
2022-09-25T08:17:49.480Z,90.48
2022-09-25T08:18:49.449Z,90.54
2022-09-25T08:19:49.447Z,90.49
2022-09-25T08:20:49.437Z,90.44
2022-09-25T08:21:49.428Z,90.43
2022-09-25T08:22:49.430Z,90.33
2022-09-25T08:23:49.414Z,90.18
2022-09-25T08:24:49.417Z,90.14
2022-09-25T08:25:49.365Z,90.21
2022-09-25T08:26:49.396Z,90.19
2022-09-25T08:27:49.400Z,90.26
2022-09-25T08:28:49.338Z,90.26
2022-09-25T08:29:49.320Z,90.25
2022-09-25T08:30:49.346Z,90.28
2022-09-25T08:31:49.325Z,90.11
2022-09-25T08:32:49.280Z,90.11
2022-09-25T08:33:49.329Z,90.14
2022-09-25T08:34:49.547Z,90.21
2022-09-25T08:35:49.261Z,90.25
2022-09-25T08:36:49.248Z,90.27
2022-09-25T08:37:49.237Z,90.21
2022-09-25T08:38:49.222Z,90.20
2022-09-25T08:39:49.228Z,89.92
2022-09-25T08:40:49.266Z,89.97
2022-09-25T08:41:49.199Z,90.00
2022-09-25T08:42:49.254Z,89.91
2022-09-25T08:43:49.167Z,89.66
2022-09-25T08:45:16.592Z,89.62
2022-09-25T08:45:50.196Z,89.62
2022-09-25T08:46:49.147Z,89.61
2022-09-25T08:47:49.145Z,89.40
2022-09-25T08:48:49.109Z,89.13
2022-09-25T08:49:49.106Z,89.04
2022-09-25T08:50:49.108Z,89.23
2022-09-25T08:51:49.103Z,89.27
2022-09-25T08:52:49.054Z,89.29
2022-09-25T08:53:49.061Z,89.31
2022-09-25T08:54:49.053Z,89.26
2022-09-25T08:55:49.032Z,89.27
2022-09-25T08:56:49.046Z,89.35
2022-09-25T08:57:48.996Z,89.20
2022-09-25T08:58:49.002Z,89.21
2022-09-25T08:59:48.973Z,89.16
2022-09-25T09:00:48.965Z,89.10
2022-09-25T09:01:48.983Z,88.99
2022-09-25T09:02:48.984Z,89.01
2022-09-25T09:03:48.949Z,88.98
2022-09-25T09:04:48.926Z,88.87
2022-09-25T09:05:51.689Z,88.94
2022-09-25T09:06:53.277Z,88.98
2022-09-25T09:07:49.883Z,89.22
2022-09-25T09:08:48.878Z,89.40
2022-09-25T09:09:48.902Z,89.34
2022-09-25T09:10:48.846Z,89.34
2022-09-25T09:11:48.843Z,89.28
2022-09-25T09:12:48.833Z,89.34
2022-09-25T09:13:48.811Z,89.34
2022-09-25T09:14:48.824Z,89.30
2022-09-25T09:15:48.802Z,89.28
2022-09-25T09:16:48.784Z,89.18
2022-09-25T09:17:48.762Z,89.05
2022-09-25T09:18:48.749Z,89.00
2022-09-25T09:19:48.755Z,88.87
2022-09-25T09:20:48.726Z,88.81
2022-09-25T09:21:48.706Z,88.83
2022-09-25T09:22:48.711Z,88.63
2022-09-25T09:23:48.695Z,88.63
2022-09-25T09:24:48.737Z,88.59
2022-09-25T09:25:48.676Z,88.33
2022-09-25T09:26:48.666Z,88.26
2022-09-25T09:27:48.655Z,88.48
2022-09-25T09:28:48.636Z,88.63
2022-09-25T09:29:48.618Z,88.50
2022-09-25T09:30:48.685Z,88.62
2022-09-25T09:31:48.603Z,88.62
2022-09-25T09:32:48.589Z,88.82
2022-09-25T09:33:48.588Z,88.88
2022-09-25T09:35:05.811Z,88.82
2022-09-25T09:35:49.590Z,88.51
2022-09-25T09:36:48.574Z,88.38
2022-09-25T09:37:48.529Z,88.17
2022-09-25T09:38:48.520Z,87.77
2022-09-25T09:39:48.498Z,87.08
2022-09-25T09:40:48.574Z,87.10
2022-09-25T09:41:48.481Z,87.27
2022-09-25T09:42:48.466Z,87.21
2022-09-25T09:43:48.463Z,87.03
2022-09-25T09:44:48.450Z,86.96
2022-09-25T09:45:48.443Z,86.61
2022-09-25T09:46:48.458Z,86.33
2022-09-25T09:47:48.413Z,86.48
2022-09-25T09:48:48.408Z,86.79
2022-09-25T09:49:48.381Z,87.15
2022-09-25T09:50:52.387Z,87.14
2022-09-25T09:51:48.383Z,86.95
2022-09-25T09:52:48.367Z,86.66
2022-09-25T09:53:48.372Z,86.19
2022-09-25T09:54:48.349Z,85.42
2022-09-25T09:55:48.329Z,85.47
2022-09-25T09:56:48.317Z,85.53
2022-09-25T09:57:48.321Z,85.35
2022-09-25T09:58:48.309Z,85.18
2022-09-25T09:59:48.271Z,85.35
2022-09-25T10:00:48.250Z,85.52
2022-09-25T10:01:48.359Z,85.16
2022-09-25T10:02:48.343Z,84.71
2022-09-25T10:03:48.252Z,84.62
2022-09-25T10:04:48.221Z,84.75
2022-09-25T10:05:48.201Z,84.61
2022-09-25T10:06:48.204Z,84.80
2022-09-25T10:07:48.201Z,84.90
2022-09-25T10:08:48.183Z,85.13
2022-09-25T10:09:48.150Z,84.91
2022-09-25T10:10:48.148Z,84.98
2022-09-25T10:11:48.133Z,84.45
2022-09-25T10:12:48.123Z,84.49
2022-09-25T10:13:48.134Z,84.75
2022-09-25T10:14:48.114Z,84.36
2022-09-25T10:15:48.110Z,84.34
2022-09-25T10:16:48.118Z,83.92
2022-09-25T10:17:48.070Z,83.54
2022-09-25T10:18:48.068Z,83.71
2022-09-25T10:19:48.044Z,83.99
2022-09-25T10:20:48.025Z,83.41
2022-09-25T10:21:48.034Z,82.52
2022-09-25T10:22:47.997Z,82.49
2022-09-25T10:23:48.037Z,82.34
2022-09-25T10:24:47.989Z,81.75
2022-09-25T10:25:51.308Z,81.96
2022-09-25T10:26:48.965Z,82.01
2022-09-25T10:27:47.956Z,82.44
2022-09-25T10:28:47.970Z,82.13
2022-09-25T10:29:47.936Z,82.07
2022-09-25T10:30:47.942Z,81.66
2022-09-25T10:31:47.923Z,81.32
2022-09-25T10:32:47.891Z,81.44
2022-09-25T10:33:47.900Z,81.63
2022-09-25T10:34:47.872Z,81.37
2022-09-25T10:35:47.864Z,81.51
2022-09-25T10:36:47.867Z,80.75
2022-09-25T10:37:47.853Z,80.71
2022-09-25T10:38:47.837Z,80.36
2022-09-25T10:39:47.961Z,79.59
2022-09-25T10:40:47.869Z,79.99
2022-09-25T10:41:47.798Z,80.27
2022-09-25T10:42:47.784Z,81.19
2022-09-25T10:43:47.776Z,79.97
2022-09-25T10:44:47.777Z,79.37
2022-09-25T10:45:47.782Z,80.45
2022-09-25T10:46:47.752Z,80.33
2022-09-25T10:47:47.735Z,80.48
2022-09-25T10:48:47.738Z,80.04
2022-09-25T10:49:47.730Z,80.42
2022-09-25T10:50:47.707Z,79.93
2022-09-25T10:51:47.710Z,79.05
2022-09-25T10:52:47.679Z,79.47
2022-09-25T10:53:47.671Z,80.08
2022-09-25T10:54:47.659Z,80.27
2022-09-25T10:55:47.637Z,79.74
2022-09-25T10:56:47.631Z,79.47
2022-09-25T10:57:47.606Z,79.23
2022-09-25T10:58:47.606Z,78.12
2022-09-25T10:59:47.630Z,78.72
2022-09-25T11:00:47.572Z,78.29
2022-09-25T11:01:47.715Z,77.31
2022-09-25T11:02:47.645Z,76.97
2022-09-25T11:03:47.551Z,78.08
2022-09-25T11:04:47.526Z,77.51
2022-09-25T11:05:47.544Z,76.79
2022-09-25T11:06:47.510Z,76.84
2022-09-25T11:07:47.500Z,75.94
2022-09-25T11:08:47.490Z,75.62
2022-09-25T11:09:47.478Z,75.35
2022-09-25T11:10:47.486Z,75.47
2022-09-25T11:11:47.475Z,76.40
2022-09-25T11:12:47.441Z,75.58
2022-09-25T11:13:47.433Z,76.07
2022-09-25T11:14:47.433Z,76.53
2022-09-25T11:15:47.427Z,77.57
2022-09-25T11:16:47.466Z,78.51
2022-09-25T11:17:47.408Z,78.90
2022-09-25T11:18:47.382Z,77.95
2022-09-25T11:19:47.361Z,76.56
2022-09-25T11:20:47.341Z,76.33
2022-09-25T11:21:47.372Z,76.86
2022-09-25T11:22:47.345Z,76.58
2022-09-25T11:23:47.343Z,76.39
2022-09-25T11:24:47.312Z,76.78
2022-09-25T11:25:47.326Z,76.54
2022-09-25T11:26:47.302Z,76.78
2022-09-25T11:27:47.277Z,76.36
2022-09-25T11:28:47.253Z,76.19
2022-09-25T11:29:47.256Z,76.42
2022-09-25T11:30:47.252Z,75.79
2022-09-25T11:31:47.236Z,75.88
2022-09-25T11:32:52.240Z,76.15
2022-09-25T11:33:48.193Z,76.73
2022-09-25T11:34:47.198Z,76.65
2022-09-25T11:35:47.185Z,76.56
2022-09-25T11:36:47.185Z,76.49
2022-09-25T11:37:47.157Z,75.92
2022-09-25T11:38:47.140Z,76.42
2022-09-25T11:39:47.149Z,77.13
2022-09-25T11:40:47.144Z,76.85
2022-09-25T11:41:47.140Z,76.48
2022-09-25T11:42:47.110Z,76.14
2022-09-25T11:43:47.096Z,75.96
2022-09-25T11:44:47.084Z,76.38
2022-09-25T11:45:47.125Z,77.17
2022-09-25T11:46:47.149Z,76.87
2022-09-25T11:47:47.065Z,76.81
2022-09-25T11:48:47.025Z,75.41
2022-09-25T11:49:47.017Z,75.85
2022-09-25T11:50:47.006Z,76.13
2022-09-25T11:51:47.018Z,76.78
2022-09-25T11:52:47.013Z,76.62
2022-09-25T11:53:46.976Z,76.96
2022-09-25T11:54:46.957Z,76.64
2022-09-25T11:55:46.970Z,77.14
2022-09-25T11:56:47.007Z,77.97
2022-09-25T11:57:46.940Z,78.15
2022-09-25T11:58:46.906Z,77.73
2022-09-25T11:59:46.907Z,78.34
2022-09-25T12:00:46.890Z,77.85
2022-09-25T12:01:46.931Z,76.78
2022-09-25T12:02:46.897Z,76.48
2022-09-25T12:03:46.879Z,76.14
2022-09-25T12:04:46.838Z,76.12
2022-09-25T12:05:46.839Z,76.20
2022-09-25T12:06:46.823Z,76.59
2022-09-25T12:07:46.823Z,76.63
2022-09-25T12:08:46.811Z,76.08
2022-09-25T12:09:46.821Z,76.25
2022-09-25T12:10:46.784Z,75.96
2022-09-25T12:11:46.776Z,76.45
2022-09-25T12:12:46.754Z,75.80
2022-09-25T12:13:46.781Z,75.61
2022-09-25T12:14:46.778Z,76.07
2022-09-25T12:15:46.739Z,75.94
2022-09-25T12:16:46.809Z,75.81
2022-09-25T12:17:46.711Z,74.98
2022-09-25T12:18:46.703Z,75.26
2022-09-25T12:19:46.682Z,75.47
2022-09-25T12:20:46.683Z,74.39
2022-09-25T12:21:46.658Z,73.73
2022-09-25T12:22:46.642Z,74.50
2022-09-25T12:23:46.631Z,75.50
2022-09-25T12:24:46.619Z,74.96
2022-09-25T12:25:46.612Z,75.62
2022-09-25T12:26:46.620Z,76.10
2022-09-25T12:27:46.589Z,74.96
2022-09-25T12:28:46.580Z,75.53
2022-09-25T12:29:46.588Z,75.56
2022-09-25T12:30:46.592Z,74.91
2022-09-25T12:31:46.544Z,75.01
2022-09-25T12:32:46.552Z,74.76
2022-09-25T12:33:46.532Z,75.01
2022-09-25T12:34:46.529Z,75.09
2022-09-25T12:35:46.541Z,73.65
2022-09-25T12:36:46.482Z,73.66
2022-09-25T12:37:46.496Z,73.80
2022-09-25T12:38:46.463Z,73.10
2022-09-25T12:39:46.457Z,73.94
2022-09-25T12:40:46.552Z,74.02
2022-09-25T12:41:46.450Z,73.16
2022-09-25T12:42:46.409Z,73.22
2022-09-25T12:43:46.423Z,73.79
2022-09-25T12:44:46.387Z,72.40
2022-09-25T12:45:46.409Z,72.77
2022-09-25T12:46:46.371Z,72.85
2022-09-25T12:47:46.354Z,72.89
2022-09-25T12:48:46.363Z,73.02
2022-09-25T12:49:46.343Z,72.42
2022-09-25T12:50:46.323Z,72.31
2022-09-25T12:51:46.314Z,71.18
2022-09-25T12:52:46.315Z,71.54